createdAt,value
2016-12-02T00:01:39.113Z,1013.71
2016-12-02T00:06:35.212Z,1013.68
2016-12-02T00:11:31.850Z,1013.78
2016-12-02T00:16:28.588Z,1013.70
2016-12-02T00:21:25.474Z,1013.64
2016-12-02T00:26:21.703Z,1013.64
2016-12-02T00:31:18.553Z,1013.54
2016-12-02T00:36:15.234Z,1013.65
2016-12-02T00:41:11.752Z,1013.70
2016-12-02T00:46:08.330Z,1013.61
2016-12-02T00:51:05.707Z,1013.63
2016-12-02T00:56:02.233Z,1013.60
2016-12-02T01:00:58.766Z,1013.48
2016-12-02T01:05:55.414Z,1013.58
2016-12-02T01:10:51.868Z,1013.63
2016-12-02T01:15:48.212Z,1013.60
2016-12-02T01:20:44.569Z,1013.63
2016-12-02T01:25:41.065Z,1013.60
2016-12-02T01:30:38.790Z,1013.68
2016-12-02T01:35:35.156Z,1013.77
2016-12-02T01:40:31.556Z,1013.71
2016-12-02T01:45:27.974Z,1013.65
2016-12-02T01:50:24.672Z,1013.65
2016-12-02T01:55:21.128Z,1013.63
2016-12-02T02:00:17.711Z,1013.53
2016-12-02T02:05:14.645Z,1013.51
2016-12-02T02:10:11.115Z,1013.50
2016-12-02T02:15:07.521Z,1013.50
2016-12-02T02:20:04.134Z,1013.41
2016-12-02T02:25:00.317Z,1013.46
2016-12-02T02:29:57.089Z,1013.51
2016-12-02T02:34:53.687Z,1013.44
2016-12-02T02:39:50.327Z,1013.48
2016-12-02T02:44:46.928Z,1013.54
2016-12-02T02:49:43.551Z,1013.51
2016-12-02T02:54:40.176Z,1013.35
2016-12-02T02:59:36.584Z,1013.32
2016-12-02T03:04:33.611Z,1013.27
2016-12-02T03:09:29.911Z,1013.28
2016-12-02T03:14:26.657Z,1013.20
2016-12-02T03:19:23.198Z,1013.21
2016-12-02T03:24:19.932Z,1013.36
2016-12-02T03:29:17.153Z,1013.34
2016-12-02T03:34:13.591Z,1013.34
2016-12-02T03:39:10.092Z,1013.53
2016-12-02T03:44:06.591Z,1013.37
2016-12-02T03:49:03.050Z,1013.39
2016-12-02T03:54:00.278Z,1013.34
2016-12-02T03:58:56.303Z,1013.40
2016-12-02T04:03:53.012Z,1013.34
2016-12-02T04:08:49.706Z,1013.33
2016-12-02T04:13:46.402Z,1013.33
2016-12-02T04:18:43.265Z,1013.26
2016-12-02T04:23:39.329Z,1013.51
2016-12-02T04:28:35.849Z,1013.43
2016-12-02T04:33:32.510Z,1013.31
2016-12-02T04:38:29.069Z,1013.35
2016-12-02T04:43:25.770Z,1013.39
2016-12-02T04:48:22.609Z,1013.41
2016-12-02T04:53:18.883Z,1013.41
2016-12-02T04:58:15.196Z,1013.37
2016-12-02T05:03:11.715Z,1013.24
2016-12-02T05:08:08.232Z,1013.38
2016-12-02T05:13:04.247Z,1013.31
2016-12-02T05:18:00.831Z,1013.24
2016-12-02T05:22:57.313Z,1013.38
2016-12-02T05:27:53.888Z,1013.37
2016-12-02T05:32:50.417Z,1013.52
2016-12-02T05:37:46.828Z,1013.46
2016-12-02T05:42:43.794Z,1013.50
2016-12-02T05:47:40.441Z,1013.46
2016-12-02T05:52:36.903Z,1013.55
2016-12-02T05:57:33.544Z,1013.53
2016-12-02T06:02:30.562Z,1013.41
2016-12-02T06:07:28.892Z,1013.54
2016-12-02T06:12:25.541Z,1013.48
2016-12-02T06:17:22.601Z,1013.46
2016-12-02T06:22:19.267Z,1013.55
2016-12-02T06:27:16.657Z,1013.54
2016-12-02T06:32:13.388Z,1013.70
2016-12-02T06:37:09.815Z,1013.68
2016-12-02T06:42:06.272Z,1013.76
2016-12-02T06:47:03.083Z,1013.77
2016-12-02T06:51:59.911Z,1013.91
2016-12-02T06:56:56.416Z,1013.95
2016-12-02T07:01:52.901Z,1013.96
2016-12-02T07:06:49.425Z,1014.14
2016-12-02T07:11:46.112Z,1014.09
2016-12-02T07:16:42.388Z,1014.19
2016-12-02T07:21:39.000Z,1014.30
2016-12-02T07:26:35.505Z,1014.23
2016-12-02T07:31:32.047Z,1014.26
2016-12-02T07:36:28.526Z,1014.37
2016-12-02T07:41:25.205Z,1014.45
2016-12-02T07:46:21.616Z,1014.65
2016-12-02T07:51:18.145Z,1014.60
2016-12-02T07:56:14.597Z,1014.73
2016-12-02T08:01:11.436Z,1014.75
2016-12-02T08:06:07.901Z,1014.86
2016-12-02T08:11:04.402Z,1014.91
2016-12-02T08:16:00.845Z,1014.89
2016-12-02T08:20:57.516Z,1014.98
2016-12-02T08:25:53.850Z,1015.03
2016-12-02T08:30:50.480Z,1015.12
2016-12-02T08:35:47.301Z,1015.06
2016-12-02T08:40:43.836Z,1015.20
2016-12-02T08:45:41.393Z,1015.24
2016-12-02T08:50:37.614Z,1015.32
2016-12-02T08:55:34.216Z,1015.41
2016-12-02T09:00:30.519Z,1015.46
2016-12-02T09:05:27.035Z,1015.51
2016-12-02T09:10:24.490Z,1015.63
2016-12-02T09:15:20.759Z,1015.60
2016-12-02T09:20:17.802Z,1015.65
2016-12-02T09:25:14.233Z,1015.79
2016-12-02T09:30:11.009Z,1015.80
2016-12-02T09:35:07.563Z,1015.73
2016-12-02T09:40:04.456Z,1015.78
2016-12-02T09:45:00.745Z,1015.80
2016-12-02T09:49:58.380Z,1015.92
2016-12-02T09:54:55.213Z,1015.92
2016-12-02T09:59:51.602Z,1015.90
2016-12-02T10:04:48.249Z,1015.95
2016-12-02T10:09:45.589Z,1016.02
2016-12-02T10:14:41.958Z,1015.89
2016-12-02T10:19:38.229Z,1015.88
2016-12-02T10:24:34.982Z,1015.93
2016-12-02T10:29:31.493Z,1015.96
2016-12-02T10:34:28.487Z,1015.96
2016-12-02T10:39:25.527Z,1015.90
2016-12-02T10:44:21.960Z,1015.95
2016-12-02T10:49:20.164Z,1016.07
2016-12-02T10:54:17.158Z,1016.08
2016-12-02T10:59:14.017Z,1016.03
2016-12-02T11:04:10.745Z,1016.08
2016-12-02T11:09:07.533Z,1016.01
2016-12-02T11:14:04.844Z,1016.09
2016-12-02T11:19:01.255Z,1016.08
2016-12-02T11:23:57.915Z,1016.11
2016-12-02T11:28:55.183Z,1016.07
2016-12-02T11:33:52.139Z,1016.06
2016-12-02T11:38:48.907Z,1016.13
2016-12-02T11:43:46.019Z,1016.04
2016-12-02T11:48:42.265Z,1016.15
2016-12-02T11:53:38.880Z,1016.11
2016-12-02T11:58:35.551Z,1016.22
2016-12-02T12:03:32.137Z,1016.18
2016-12-02T12:08:31.105Z,1016.14
2016-12-02T12:13:27.465Z,1016.17
2016-12-02T12:18:23.784Z,1016.35
2016-12-02T12:23:20.119Z,1016.20
2016-12-02T12:28:18.738Z,1016.23
2016-12-02T12:33:14.334Z,1016.26
2016-12-02T12:38:11.793Z,1016.19
2016-12-02T12:43:07.911Z,1016.16
2016-12-02T12:48:04.162Z,1016.24
2016-12-02T12:53:00.838Z,1016.19
2016-12-02T12:57:57.606Z,1016.21
2016-12-02T13:02:54.022Z,1016.11
2016-12-02T13:07:50.614Z,1016.14
2016-12-02T13:12:48.461Z,1016.26
2016-12-02T13:17:45.341Z,1016.24
2016-12-02T13:22:42.091Z,1016.10
2016-12-02T13:27:39.176Z,1016.23
2016-12-02T13:32:36.372Z,1016.21
2016-12-02T13:37:34.366Z,1016.21
2016-12-02T13:42:30.878Z,1016.26
2016-12-02T13:47:30.612Z,1016.23
2016-12-02T13:52:26.130Z,1016.20
2016-12-02T13:57:23.431Z,1016.26
2016-12-02T14:02:20.301Z,1016.25
2016-12-02T14:07:16.868Z,1016.27
2016-12-02T14:12:13.565Z,1016.30
2016-12-02T14:17:11.546Z,1016.25
2016-12-02T14:22:07.902Z,1016.28
2016-12-02T14:27:04.317Z,1016.33
2016-12-02T14:32:00.455Z,1016.34
2016-12-02T14:36:56.965Z,1016.36
2016-12-02T14:41:54.336Z,1016.44
2016-12-02T14:46:50.756Z,1016.43
2016-12-02T14:51:47.204Z,1016.42
2016-12-02T14:56:43.747Z,1016.54
2016-12-02T15:01:40.141Z,1016.63
2016-12-02T15:06:37.781Z,1016.55
2016-12-02T15:11:33.862Z,1016.60
2016-12-02T15:16:30.209Z,1016.63
2016-12-02T15:21:27.305Z,1016.55
2016-12-02T15:26:24.543Z,1016.66
2016-12-02T15:31:20.453Z,1016.72
2016-12-02T15:36:16.998Z,1016.60
2016-12-02T15:41:13.438Z,1016.71
2016-12-02T15:46:09.925Z,1016.70
2016-12-02T15:51:06.527Z,1016.70
2016-12-02T15:56:04.375Z,1016.71
2016-12-02T16:01:00.557Z,1016.73
2016-12-02T16:05:57.207Z,1016.86
2016-12-02T16:10:53.388Z,1016.80
2016-12-02T16:15:50.484Z,1016.82
2016-12-02T16:20:46.942Z,1016.79
2016-12-02T16:25:43.441Z,1016.74
2016-12-02T16:30:39.995Z,1016.77
2016-12-02T16:35:36.585Z,1016.85
2016-12-02T16:40:32.827Z,1016.88
2016-12-02T16:45:29.397Z,1016.90
2016-12-02T16:50:25.618Z,1016.88
2016-12-02T16:55:24.600Z,1016.91
2016-12-02T17:00:21.250Z,1016.94
2016-12-02T17:05:18.049Z,1016.95
2016-12-02T17:10:14.870Z,1017.08
2016-12-02T17:15:11.790Z,1016.99
2016-12-02T17:20:09.917Z,1017.02
2016-12-02T17:25:06.293Z,1017.09
2016-12-02T17:30:03.174Z,1017.01
2016-12-02T17:34:59.869Z,1017.11
2016-12-02T17:39:57.952Z,1017.16
2016-12-02T17:44:54.407Z,1017.08
2016-12-02T17:49:50.873Z,1017.09
2016-12-02T17:54:47.651Z,1017.20
2016-12-02T17:59:44.566Z,1017.22
2016-12-02T18:04:41.467Z,1017.16
2016-12-02T18:09:38.465Z,1017.24
2016-12-02T18:14:35.428Z,1017.38
2016-12-02T18:19:31.783Z,1017.36
2016-12-02T18:24:28.403Z,1017.40
2016-12-02T18:29:25.856Z,1017.41
2016-12-02T18:34:21.963Z,1017.40
2016-12-02T18:39:18.381Z,1017.51
2016-12-02T18:44:14.912Z,1017.49
2016-12-02T18:49:11.822Z,1017.57
2016-12-02T18:54:08.159Z,1017.58
2016-12-02T18:59:04.497Z,1017.60
2016-12-02T19:04:01.287Z,1017.66
2016-12-02T19:08:58.801Z,1017.63
2016-12-02T19:13:54.901Z,1017.73
2016-12-02T19:18:51.552Z,1017.75
2016-12-02T19:23:48.408Z,1017.79
2016-12-02T19:28:45.274Z,1017.62
2016-12-02T19:33:41.657Z,1017.81
2016-12-02T19:38:38.352Z,1017.87
2016-12-02T19:43:34.850Z,1017.84
2016-12-02T19:48:31.337Z,1017.86
2016-12-02T19:53:27.915Z,1017.75
2016-12-02T19:58:24.180Z,1017.82
2016-12-02T20:03:20.506Z,1017.79
2016-12-02T20:08:18.105Z,1017.75
2016-12-02T20:13:14.452Z,1017.74
2016-12-02T20:18:10.974Z,1017.84
2016-12-02T20:23:08.906Z,1017.89
2016-12-02T20:28:06.132Z,1017.90
2016-12-02T20:33:02.202Z,1017.85
2016-12-02T20:37:58.677Z,1017.97
2016-12-02T20:42:54.628Z,1017.91
2016-12-02T20:47:51.347Z,1017.91
2016-12-02T20:52:48.031Z,1017.91
2016-12-02T20:57:44.619Z,1017.94
2016-12-02T21:02:40.828Z,1017.90
2016-12-02T21:07:37.144Z,1017.90
2016-12-02T21:12:33.526Z,1017.88
2016-12-02T21:17:30.088Z,1017.87
2016-12-02T21:22:26.655Z,1017.82
2016-12-02T21:27:23.238Z,1017.91
2016-12-02T21:32:19.827Z,1017.92
2016-12-02T21:37:15.832Z,1017.87
2016-12-02T21:42:12.506Z,1017.99
2016-12-02T21:47:08.811Z,1017.90
2016-12-02T21:52:06.249Z,1017.91
2016-12-02T21:57:02.806Z,1018.00
2016-12-02T22:01:59.626Z,1017.95
2016-12-02T22:06:55.956Z,1017.93
2016-12-02T22:11:52.680Z,1017.99
2016-12-02T22:16:50.354Z,1017.98
2016-12-02T22:21:47.229Z,1018.08
2016-12-02T22:26:44.413Z,1018.08
2016-12-02T22:31:41.633Z,1018.22
2016-12-02T22:36:38.118Z,1018.17
2016-12-02T22:41:34.551Z,1018.17
2016-12-02T22:46:31.054Z,1018.21
2016-12-02T22:51:27.406Z,1018.28
2016-12-02T22:56:24.065Z,1018.27
2016-12-02T23:01:20.483Z,1018.14
2016-12-02T23:06:17.008Z,1018.21
2016-12-02T23:11:13.648Z,1018.05
2016-12-02T23:16:10.161Z,1018.15
2016-12-02T23:21:09.686Z,1018.16
2016-12-02T23:26:05.616Z,1018.22
2016-12-02T23:31:02.162Z,1018.23
2016-12-02T23:35:58.565Z,1018.26
2016-12-02T23:40:55.103Z,1018.30
2016-12-02T23:45:51.934Z,1018.36
2016-12-02T23:50:48.620Z,1018.38
2016-12-02T23:55:45.149Z,1018.34
